Flight Track Log - Related Links

Times and Time Zones

All times are in EDT time to prevent confusion due to time zone crossing. See the AAL832 flight status page for this flight to view local times or setup timezone preferences in your user account.

Time Position Orientation Groundspeed Altitude Reporting Facility
EDT Latitude Longitude Course Direction KTS MPH feet Rate Location/Type
Wed 12:10:00 33.9322 -118.4369 90° East 168 193 1,700  Level Los Center
Wed 12:11:00 33.8575 -118.6523 192° South  Level FlightAware
Wed 12:11:02 33.8797 -118.4842 217° Southwest 240 276 4,500  Level Los Center
Wed 12:12:00 33.7511 -118.6014 132° Southeast  Level FlightAware
Wed 12:12:04 33.8169 -118.5006 192° South 269 310 5,100  Level Los Center
Wed 12:13:00 33.6767 -118.4766 101° East  Level FlightAware
Wed 12:13:06 33.7250 -118.5128 186° South 288 331 8,900  Level Los Center
Wed 12:14:00 33.6333 -118.3286 90° East  Level FlightAware
Wed 12:14:21 33.6686 -118.4506 137° Southeast 319 367 11,600  Level Los Center
Wed 12:15:00 33.6333 -118.1703 90° East  Level FlightAware
Wed 12:15:23 33.6683 -118.3125 90° East 354 407 14,400  Level Los Center
Wed 12:16:25 33.6664 -118.1619 91° East 384 442 17,600 2,661 Climbing Los Center
Wed 12:17:27 33.6650 -118.0281 91° East 401 461 19,900 2,226 Climbing Los Center
Wed 12:18:29 33.6628 -117.8908 91° East 412 474 22,200 1,984 Climbing Los Center
Wed 12:19:31 33.6617 -117.7481 90° East 428 493 24,000 1,872 Climbing Los Center
Wed 12:20:34 33.6583 -117.5683 91° East 448 516 26,100 1,920 Climbing Los Center
Wed 12:21:36 33.6564 -117.4117 91° East 468 539 28,000 1,694 Climbing Los Center
Wed 12:22:38 33.6528 -117.2514 92° East 482 555 29,600 1,645 Climbing Los Center
Wed 12:23:40 33.6611 -117.0889 86° East 488 562 31,400 1,887 Climbing Los Center
Wed 12:24:42 33.6922 -116.9294 77° East 492 566 33,500 1,742 Climbing Los Center
Wed 12:25:44 33.7247 -116.7569 77° East 480 552 35,000 1,016 Climbing Los Center
Wed 12:26:46 33.7550 -116.5944 77° East 494 568 35,600 871 Climbing Los Center
Wed 12:27:48 33.7847 -116.4344 77° East 490 564 36,800 677 Climbing Los Center
Wed 12:28:50 33.8078 -116.3047 78° East 494 568 37,000 96 Climbing Los Center
Wed 12:29:53 33.8436 -116.1081 78° East 501 577 37,000  Level Los Center
Wed 12:30:55 33.8903 -115.9164 74° East 498 573 37,000  Level Los Center
Wed 12:31:57 33.9461 -115.7636 66° East 498 573 37,000  Level Los Center
Wed 12:33:11 34.0028 -115.6117 66° East 498 573 37,000  Level Los Center
Wed 12:34:13 34.0700 -115.4281 66° East 498 573 37,000  Level Los Center
Wed 12:35:15 34.1269 -115.2750 66° East 500 575 37,000  Level Los Center
Wed 12:36:18 34.1953 -115.0883 66° East 506 582 37,000  Level Los Center
Wed 12:37:20 34.2511 -114.9350 66° East 501 577 37,000  Level Los Center
Wed 12:38:22 34.3072 -114.7806 66° East 502 578 37,000  Level Los Center
Wed 12:39:24 34.3625 -114.6247 67° East 503 579 37,000  Level Los Center
Wed 12:40:25 34.4069 -114.5011 66° East 501 577 37,000  Level Los Center
Wed 12:41:28 34.4731 -114.3147 67° East 503 579 37,000  Level Los Center
Wed 12:42:30 34.5392 -114.1278 67° East 503 579 37,000  Level Los Center
Wed 12:43:00 34.5631 -114.0600 67° East 504 580 37,000  Level Albuquerque Center
Wed 12:44:02 34.6172 -113.9028 67° East 505 581 37,000  Level Albuquerque Center
Wed 12:45:04 34.6728 -113.7472 66° East 504 580 37,000  Level Albuquerque Center
Wed 12:46:06 34.7267 -113.5919 67° East 505 581 37,000  Level Albuquerque Center
Wed 12:47:08 34.7917 -113.4053 67° East 504 580 37,000  Level Albuquerque Center
Wed 12:48:10 34.8439 -113.2486 68° East 505 581 37,000  Level Albuquerque Center
Wed 12:49:12 34.8978 -113.0936 67° East 504 580 37,000  Level Albuquerque Center
Wed 12:50:14 34.9506 -112.9367 68° East 505 581 37,000  Level Albuquerque Center
Wed 12:51:16 35.0131 -112.7506 68° East 503 579 37,000  Level Albuquerque Center
Wed 12:52:18 35.0650 -112.5944 68° East 504 580 37,000  Level Albuquerque Center
Wed 12:53:20 35.1175 -112.4383 68° East 505 581 37,000  Level Albuquerque Center
Wed 12:54:22 35.1697 -112.2817 68° East 504 580 37,000  Level Albuquerque Center
Wed 12:55:24 35.2217 -112.1222 68° East 507 583 37,000  Level Albuquerque Center
Wed 12:56:26 35.2847 -111.9333 68° East 505 581 37,000  Level Albuquerque Center
Wed 12:57:28 35.3361 -111.7739 68° East 506 582 37,000  Level Albuquerque Center
Wed 12:58:30 35.3886 -111.6153 68° East 507 583 37,000  Level Albuquerque Center
Wed 12:59:33 35.4397 -111.4558 68° East 506 582 37,000  Level Albuquerque Center
Wed 13:00:35 35.5011 -111.2722 68° East 506 582 37,000  Level Albuquerque Center
Wed 13:01:37 35.5483 -111.1183 69° East 504 580 37,000  Level Albuquerque Center
Wed 13:02:39 35.6072 -110.9389 68° East 505 581 37,000  Level Albuquerque Center
Wed 13:03:41 35.6567 -110.7853 68° East 506 582 37,000  Level Albuquerque Center
Wed 13:04:43 35.7111 -110.6028 70° East 507 583 37,000  Level Albuquerque Center
Wed 13:05:45 35.7611 -110.4486 68° East 507 583 37,000  Level Albuquerque Center
Wed 13:06:47 35.8175 -110.2678 69° East 506 582 37,000  Level Albuquerque Center
Wed 13:07:49 35.8661 -110.1131 69° East 505 581 37,000  Level Albuquerque Center
Wed 13:08:36 35.9072 -109.9853 68° East 505 581 37,000  Level Denver Center
Wed 13:09:38 35.9617 -109.8039 70° East 504 580 37,000  Level Denver Center
Wed 13:10:40 36.0094 -109.6492 69° East 504 580 37,000  Level Denver Center
Wed 13:10:55 36.0175 -109.6222 70° East 503 579 37,000  Level Albuquerque Center
Wed 13:11:42 36.0567 -109.4933 69° East 505 581 37,000  Level Denver Center
Wed 13:12:44 36.1114 -109.3128 69° East 502 578 37,000  Level Denver Center
Wed 13:12:59 36.1189 -109.2861 71° East 502 578 37,000  Level Albuquerque Center
Wed 13:13:46 36.1572 -109.1575 70° East 500 575 37,000  Level Denver Center
Wed 13:14:49 36.2117 -108.9744 70° East 500 575 37,000  Level Denver Center
Wed 13:15:51 36.2583 -108.8167 70° East 500 575 37,000  Level Denver Center
Wed 13:16:53 36.3044 -108.6597 70° East 501 577 37,000  Level Denver Center
Wed 13:17:55 36.3575 -108.4778 70° East 500 575 37,000  Level Denver Center
Wed 13:18:57 36.4025 -108.3217 70° East 499 574 37,000  Level Denver Center
Wed 13:19:59 36.4547 -108.1392 70° East 501 577 37,000  Level Denver Center
Wed 13:21:01 36.4997 -107.9833 70° East 501 577 37,000  Level Denver Center
Wed 13:22:03 36.5522 -107.7997 70° East 504 580 37,000  Level Denver Center
Wed 13:23:05 36.5972 -107.6422 70° East 504 580 37,000  Level Denver Center
Wed 13:24:19 36.6564 -107.4314 71° East 505 581 37,000  Level Denver Center
Wed 13:25:21 36.7003 -107.2736 71° East 504 580 37,000  Level Denver Center
Wed 13:26:23 36.7503 -107.0889 71° East 503 579 37,000  Level Denver Center
Wed 13:27:25 36.7936 -106.9311 71° East 502 578 37,000  Level Denver Center
Wed 13:28:27 36.8450 -106.7497 70° East 498 573 37,000  Level Denver Center
Wed 13:29:29 36.8878 -106.5933 71° East 497 572 37,000  Level Denver Center
Wed 13:30:31 36.9375 -106.4097 71° East 498 573 37,000  Level Denver Center
Wed 13:31:33 36.9792 -106.2531 72° East 497 572 37,000  Level Denver Center
Wed 13:32:35 37.0219 -106.0939 71° East 502 578 37,000  Level Denver Center
Wed 13:33:37 37.0711 -105.9106 71° East 498 573 37,000  Level Denver Center
Wed 13:34:38 37.1128 -105.7503 72° East 504 580 37,000  Level Denver Center
Wed 13:35:40 37.1625 -105.5669 71° East 500 575 37,000  Level Denver Center
Wed 13:36:42 37.2039 -105.4086 72° East 499 574 37,000 532 Level Denver Center
Wed 13:37:44 37.2511 -105.2242 72° East 497 572 38,100 871 Climbing Denver Center
Wed 13:38:46 37.2894 -105.0656 73° East 497 572 38,800 435 Climbing Denver Center
Wed 13:39:48 37.3381 -104.8803 72° East 500 575 39,000 97 Climbing Denver Center
Wed 13:40:50 37.3781 -104.7222 72° East 496 571 39,000  Level Denver Center
Wed 13:41:52 37.4244 -104.5378 72° East 495 570 39,000  Level Denver Center
Wed 13:42:54 37.4633 -104.3806 73° East 493 567 39,000  Level Denver Center
Wed 13:43:56 37.5031 -104.2214 72° East 496 571 39,000  Level Denver Center
Wed 13:44:58 37.5506 -104.0347 72° East 496 571 39,000  Level Denver Center
Wed 13:46:00 37.5942 -103.8656 72° East 496 571 39,000  Level Denver Center
Wed 13:47:02 37.6322 -103.7069 73° East 495 570 39,000  Level Denver Center
Wed 13:48:04 37.6775 -103.5208 73° East 496 571 39,000  Level Denver Center
Wed 13:49:06 37.7150 -103.3614 73° East 496 571 39,000  Level Denver Center
Wed 13:50:08 37.7592 -103.1756 73° East 495 570 39,000  Level Denver Center
Wed 13:51:10 37.7967 -103.0156 73° East 496 571 39,000  Level Denver Center
Wed 13:52:12 37.8397 -102.8278 74° East 498 573 39,000  Level Denver Center
Wed 13:53:14 37.8786 -102.6667 73° East 499 574 39,000  Level Denver Center
Wed 13:54:16 37.9225 -102.4769 74° East 503 579 39,000  Level Denver Center
Wed 13:55:18 37.9561 -102.3261 74° East 501 577 39,000  Level Denver Center
Wed 13:56:20 37.9981 -102.1381 74° East 497 572 39,000  Level Denver Center
Wed 13:57:22 38.0336 -101.9742 75° East 501 577 39,000  Level Denver Center
Wed 13:58:24 38.0750 -101.7839 74° East 500 575 39,000  Level Denver Center
Wed 13:59:26 38.1097 -101.6225 75° East 494 568 39,000  Level Denver Center
Wed 14:00:28 38.1511 -101.4344 74° East 493 567 39,000  Level Denver Center
Wed 14:01:30 38.1850 -101.2756 75° East 487 560 39,000  Level Denver Center
Wed 14:02:32 38.2253 -101.0917 74° East 483 556 39,000  Level Denver Center
Wed 14:03:34 38.2600 -100.9353 74° East 479 551 39,000  Level Denver Center
Wed 14:04:36 38.2956 -100.7783 74° East 479 551 39,000  Level Denver Center
Wed 14:05:38 38.3358 -100.5953 74° East 480 552 39,000  Level Denver Center
Wed 14:06:08 38.3531 -100.5169 74° East 478 550 39,000  Level Kansas Center
Wed 14:07:10 38.3858 -100.3594 75° East 478 550 39,000  Level Kansas Center
Wed 14:07:42 38.4097 -100.2553 74° East 479 551 39,000  Level Denver Center
Wed 14:08:44 38.4425 -100.0997 75° East 475 547 39,000  Level Denver Center
Wed 14:09:46 38.4797 -99.9150 76° East 478 550 39,000  Level Denver Center
Wed 14:10:16 38.4961 -99.8375 75° East 476 548 39,000  Level Kansas Center
Wed 14:11:18 38.5275 -99.6803 76° East 477 549 39,000  Level Kansas Center
Wed 14:12:20 38.5564 -99.5264 76° East 478 550 39,000  Level Kansas Center
Wed 14:13:22 38.5978 -99.3289 75° East 478 550 39,000  Level Kansas Center
Wed 14:14:24 38.6311 -99.1631 76° East 481 554 39,000  Level Kansas Center
Wed 14:15:26 38.6653 -98.9944 75° East 487 560 39,000  Level Kansas Center
Wed 14:16:28 38.6981 -98.8258 76° East 488 562 39,000  Level Kansas Center
Wed 14:17:30 38.7311 -98.6561 76° East 489 563 39,000  Level Kansas Center
Wed 14:18:32 38.7642 -98.4853 76° East 492 566 39,000  Level Kansas Center
Wed 14:19:34 38.7975 -98.3125 76° East 497 572 39,000  Level Kansas Center
Wed 14:20:36 38.8367 -98.1058 76° East 495 570 39,000  Level Kansas Center
Wed 14:21:38 38.8694 -97.9325 76° East 497 572 39,000  Level Kansas Center
Wed 14:22:40 38.9036 -97.7497 76° East 496 571 39,000  Level Kansas Center
Wed 14:23:42 38.9369 -97.5847 75° East 498 573 39,000  Level Kansas Center
Wed 14:24:44 38.9792 -97.4208 72° East 502 578 39,000  Level Kansas Center
Wed 14:25:46 39.0289 -97.2342 71° East 497 572 39,000  Level Kansas Center
Wed 14:26:48 39.0736 -97.0739 70° East 498 573 39,000  Level Kansas Center
Wed 14:27:50 39.1231 -96.8861 71° East 497 572 39,000  Level Kansas Center
Wed 14:28:51 39.1647 -96.7233 72° East 498 573 39,000  Level Kansas Center
Wed 14:29:53 39.2131 -96.5350 72° East 497 572 39,000  Level Kansas Center
Wed 14:30:55 39.2508 -96.3750 73° East 488 562 39,000  Level Kansas Center
Wed 14:31:57 39.2969 -96.2050 71° East 492 566 39,000  Level Kansas Center
Wed 14:32:59 39.3375 -96.0297 73° East 483 556 39,000  Level Kansas Center
Wed 14:34:01 39.3839 -95.8469 72° East 478 550 39,000  Level Kansas Center
Wed 14:35:03 39.4233 -95.6881 72° East 481 554 39,000  Level Kansas Center
Wed 14:36:05 39.4614 -95.5311 73° East 475 547 39,000  Level Kansas Center
Wed 14:37:07 39.5069 -95.3408 73° East 476 548 39,000  Level Kansas Center
Wed 14:38:09 39.5439 -95.1881 73° East 476 548 39,000  Level Kansas Center
Wed 14:39:11 39.5881 -95.0039 73° East 476 548 39,000  Level Kansas Center
Wed 14:40:13 39.6256 -94.8456 73° East 476 548 39,000  Level Kansas Center
Wed 14:41:15 39.6639 -94.6897 72° East 474 545 39,000  Level Kansas Center
Wed 14:42:17 39.7067 -94.5061 73° East 474 545 39,000  Level Kansas Center
Wed 14:43:19 39.7433 -94.3494 73° East 473 544 39,000  Level Kansas Center
Wed 14:44:21 39.7864 -94.1664 73° East 473 544 39,000  Level Kansas Center
Wed 14:45:23 39.8206 -94.0128 74° East 471 542 39,000  Level Kansas Center
Wed 14:46:24 39.8561 -93.8486 74° East 474 545 39,000  Level Kansas Center
Wed 14:47:26 39.8933 -93.6872 73° East 471 542 39,000  Level Kansas Center
Wed 14:48:28 39.9364 -93.4914 74° East 473 544 39,000  Level Kansas Center
Wed 14:49:30 39.9744 -93.3292 73° East 473 544 39,000  Level Kansas Center
Wed 14:50:32 40.0106 -93.1678 74° East 469 540 39,000  Level Kansas Center
Wed 14:51:34 40.0456 -93.0031 74° East 474 545 39,000  Level Kansas Center
Wed 14:52:36 40.0844 -92.8283 74° East 474 545 39,000  Level Kansas Center
Wed 14:53:38 40.1247 -92.6408 74° East 479 551 39,000  Level Kansas Center
Wed 14:54:40 40.1689 -92.4867 69° East 474 545 39,000  Level Kansas Center
Wed 14:55:42 40.2292 -92.3394 62° Northeast 472 543 39,000 -97 Level Kansas Center
Wed 14:56:44 40.2947 -92.1525 65° Northeast 477 549 38,800 -1,210 Descending Kansas Center
Wed 14:57:46 40.3489 -91.9978 65° Northeast 475 547 36,500 -2,565 Descending Kansas Center
Wed 14:58:48 40.4056 -91.8378 65° Northeast 483 556 33,500 -2,565 Descending Kansas Center
Wed 14:59:50 40.4639 -91.6711 65° Northeast 502 578 31,200 -2,214 Descending Kansas Center
Wed 15:00:31 40.5078 -91.5381 67° East 503 579 29,700 -1,282 Descending Chicago Center
Wed 15:01:33 40.5606 -91.3789 66° East 487 560 29,000 -339 Descending Chicago Center
Wed 15:02:35 40.6147 -91.2292 64° Northeast 470 541 29,000  Level Chicago Center
Wed 15:03:37 40.6667 -91.0700 67° East 471 542 29,000  Level Chicago Center
Wed 15:04:39 40.7225 -90.9106 65° Northeast 476 548 29,000  Level Chicago Center
Wed 15:05:41 40.7867 -90.7194 66° East 475 547 29,000  Level Chicago Center
Wed 15:06:43 40.8400 -90.5597 66° East 474 545 29,000 -339 Level Chicago Center
Wed 15:07:45 40.8933 -90.3994 66° East 475 547 28,300 -1,104 Descending Chicago Center
Wed 15:08:48 40.9536 -90.2197 66° East 484 557 26,700 -1,296 Descending Chicago Center
Wed 15:09:50 41.0014 -90.0736 67° East 474 545 25,600 -1,065 Descending Chicago Center
Wed 15:10:52 41.0539 -89.9147 66° East 466 536 24,500 -774 Descending Chicago Center
Wed 15:11:54 41.1061 -89.7594 66° East 459 528 24,000 -387 Descending Chicago Center
Wed 15:12:56 41.1675 -89.5722 66° East 460 529 23,700 -1,113 Descending Chicago Center
Wed 15:13:58 41.2281 -89.4256 61° Northeast 455 524 21,700 -2,129 Descending Chicago Center
Wed 15:15:00 41.2839 -89.2856 62° Northeast 439 505 19,300 -2,226 Descending Chicago Center
Wed 15:16:02 41.3353 -89.1544 62° Northeast 408 470 17,100 -2,032 Descending Chicago Center
Wed 15:17:04 41.3878 -89.0247 62° Northeast 399 459 15,100 -2,032 Descending Chicago Center
Wed 15:18:06 41.4375 -88.8983 62° Northeast 391 450 12,900 -1,920 Descending Chicago Center
Wed 15:19:09 41.4950 -88.7519 62° Northeast 376 433 11,100 -912 Descending Chicago Center
Wed 15:20:11 41.5469 -88.6344 59° Northeast 367 422 11,000 -48 Descending Chicago Center
Wed 15:21:13 41.5869 -88.5350 62° Northeast 311 358 11,000 -581 Level Chicago Center
Wed 15:22:15 41.6403 -88.4525 49° Northeast 294 338 9,800 -1,258 Descending Chicago Center
Wed 15:23:17 41.6933 -88.3708 49° Northeast 291 335 8,400 -968 Descending Chicago Center
Wed 15:24:19 41.7564 -88.3456 17° North 248 285 7,800 -677 Descending Chicago Center
Wed 15:25:21 41.8347 -88.3450 360° North 234 269 7,000 -816 Descending Chicago Center
Wed 15:26:24 41.8967 -88.3481 358° North 226 260 6,100 -720 Descending Chicago Center
Wed 15:27:26 41.9394 -88.3178 28° Northeast 198 228 5,500 -871 Descending Chicago Center
Wed 15:28:28 41.9594 -88.2522 68° East 190 219 4,300 -726 Descending Chicago Center
Wed 15:29:30 41.9675 -88.1806 81° East 198 228 4,000 -610 Descending Chicago Center
Wed 15:30:26 41.9667 -88.1000 91° East 192 221 3,100 -964 Descending Chicago TRACON

Login

Don't have an account? Register now (free) for customized features, flight alerts, and more!